This is the latest recevied weather packets stored in our database for station/object OE3EMC-13. If no packets are shown the sender has not sent any weather packets the latest 10 day(s).
| Time | Temp. | Humidity | Pressure | Rain* | Wind** | Luminosity | Snow |
|---|---|---|---|---|---|---|---|
| 1777829594 | 20° C | 41% | 1100 hPa | 0 mm | - | - | - |
| 1777828991 | 20° C | 41% | 1100 hPa | 0 mm | - | - | - |
| 1777828392 | 21.67° C | 39% | 1100 hPa | 0 mm | - | - | - |
| 1777827791 | 21.67° C | 39% | 1100 hPa | 0 mm | - | - | - |
| 1777827191 | 23.33° C | 36% | 1100 hPa | 0 mm | - | - | - |
| 1777826591 | 23.33° C | 36% | 1100 hPa | 0 mm | - | - | - |
| 1777825991 | 23.89° C | 34% | 1100 hPa | 0 mm | - | - | - |
| 1777825391 | 23.89° C | 34% | 1100 hPa | 0 mm | - | - | - |
| 1777824790 | 25° C | 33% | 1100 hPa | 0 mm | - | - | - |
| 1777824191 | 25° C | 33% | 1100 hPa | 0 mm | - | - | - |
| 1777823590 | 25.56° C | 32% | 1100 hPa | 0 mm | - | - | - |
| 1777822990 | 25.56° C | 32% | 1100 hPa | 0 mm | - | - | - |
| 1777822390 | 25.56° C | 32% | 1100 hPa | 0 mm | - | - | - |
| 1777821790 | 25.56° C | 32% | 1100 hPa | 0 mm | - | - | - |
| 1777821191 | 26.11° C | 30% | 1100 hPa | 0 mm | - | - | - |
| 1777820589 | 26.11° C | 30% | 1100 hPa | 0 mm | - | - | - |
| 1777819994 | 26.67° C | 29% | 1100 hPa | 0 mm | - | - | - |
| 1777819394 | 26.67° C | 29% | 1100 hPa | 0 mm | - | - | - |
| 1777818794 | 26.67° C | 30% | 1100 hPa | 0 mm | - | - | - |
| 1777818195 | 26.67° C | 30% | 1100 hPa | 0 mm | - | - | - |
| 1777817595 | 26.67° C | 28% | 1100 hPa | 0 mm | - | - | - |
| 1777816994 | 26.67° C | 28% | 1100 hPa | 0 mm | - | - | - |
| 1777816395 | 26.67° C | 28% | 1100 hPa | 0 mm | - | - | - |
| 1777815793 | 26.67° C | 28% | 1100 hPa | 0 mm | - | - | - |
| 1777815194 | 26.67° C | 30% | 1100 hPa | 0 mm | - | - | - |
* Rain latest hour (hover to see other rain measurements)
** Current wind speed in m/s (hover to see current wind gust speed)